Time;durP1;ratioP1;P1;durP2;ratioP2;P2;SDS_P1;SDS_P2;PMS_P1;PMS_P2;Temp;Humidity;BMP_temperature;BMP_pressure;BME280_temperature;BME280_humidity;BME280_pressure;Samples;Min_cycle;Max_cycle;Signal;HPM_P1;HPM_P2
2022/05/01 00:02:37;;;;;;;11.55;6.75;;;;;;;;;;10358439;28;20072;-64
2022/05/01 00:07:36;;;;;;;9.55;7.63;;;;;;;;;;10357509;28;20075;-64
2022/05/01 00:12:36;;;;;;;9.68;7.35;;;;;;;;;;10356866;28;20087;-64
2022/05/01 00:17:35;;;;;;;10.75;8.38;;;;;;;;;;10357146;28;20435;-64
2022/05/01 00:22:33;;;;;;;12.98;6.85;;;;;;;;;;10356695;28;20087;-64
2022/05/01 00:27:32;;;;;;;8.85;6.97;;;;;;;;;;10357124;28;20080;-64
2022/05/01 00:36:25;;;;;;;8.55;6.93;;;;;;;;;;10355407;28;20116;-64
2022/05/01 00:37:50;;;;;;;10.70;7.18;;;;;;;;;;10355861;28;20068;-64
2022/05/01 00:42:48;;;;;;;10.95;7.55;;;;;;;;;;10356532;28;20075;-64
2022/05/01 00:47:48;;;;;;;9.95;8.52;;;;;;;;;;10357051;28;20044;-64
2022/05/01 00:52:46;;;;;;;10.77;7.57;;;;;;;;;;10356849;28;20563;-64
2022/05/01 00:57:46;;;;;;;14.73;8.98;;;;;;;;;;10356308;28;20058;-64
2022/05/01 01:02:45;;;;;;;11.63;9.00;;;;;;;;;;10356028;28;20076;-64
2022/05/01 01:07:45;;;;;;;14.45;10.30;;;;;;;;;;10355822;28;20128;-64
2022/05/01 01:12:55;;;;;;;15.32;9.90;;;;;;;;;;10355359;28;20083;-64
2022/05/01 01:17:54;;;;;;;13.55;10.73;;;;;;;;;;10355678;28;20087;-63
2022/05/01 01:22:54;;;;;;;11.45;9.95;;;;;;;;;;10355291;28;20513;-64
2022/05/01 01:27:54;;;;;;;17.50;9.80;;;;;;;;;;10355459;28;20083;-64
2022/05/01 01:32:52;;;;;;;12.23;9.73;;;;;;;;;;10355882;28;20082;-64
2022/05/01 01:37:51;;;;;;;10.30;8.82;;;;;;;;;;10356068;28;20044;-64
2022/05/01 01:42:52;;;;;;;13.73;10.40;;;;;;;;;;10354017;28;20040;-64
2022/05/01 01:47:50;;;;;;;12.43;9.10;;;;;;;;;;10355228;28;20102;-64
2022/05/01 01:52:48;;;;;;;14.55;9.02;;;;;;;;;;10361062;28;20091;-64
2022/05/01 01:57:47;;;;;;;13.70;11.15;;;;;;;;;;10363552;28;20067;-65
2022/05/01 02:02:46;;;;;;;15.70;11.90;;;;;;;;;;10360515;28;20071;-65
2022/05/01 02:07:45;;;;;;;15.07;11.23;;;;;;;;;;10363422;28;20060;-65
2022/05/01 02:12:43;;;;;;;15.07;10.85;;;;;;;;;;10361759;28;20090;-64
2022/05/01 02:17:41;;;;;;;16.30;10.85;;;;;;;;;;10362830;28;20070;-63
2022/05/01 02:22:42;;;;;;;19.48;9.93;;;;;;;;;;10362689;28;20076;-63
2022/05/01 02:27:40;;;;;;;19.02;10.30;;;;;;;;;;10361919;28;20079;-65
2022/05/01 02:32:38;;;;;;;12.88;10.77;;;;;;;;;;10361385;28;20082;-64
2022/05/01 02:37:37;;;;;;;12.48;9.68;;;;;;;;;;10361356;28;20048;-64
2022/05/01 02:42:36;;;;;;;14.50;10.65;;;;;;;;;;10361830;28;20177;-64
2022/05/01 02:47:35;;;;;;;11.10;9.95;;;;;;;;;;10359855;28;20143;-64
2022/05/01 02:52:33;;;;;;;18.83;10.85;;;;;;;;;;10361524;28;20082;-64
2022/05/01 02:57:31;;;;;;;21.20;11.20;;;;;;;;;;10361166;28;20087;-64
2022/05/01 03:02:31;;;;;;;15.73;10.73;;;;;;;;;;10358695;28;20090;-64
2022/05/01 03:07:29;;;;;;;19.52;11.80;;;;;;;;;;10360835;28;20400;-64
2022/05/01 03:12:28;;;;;;;14.20;9.90;;;;;;;;;;10359224;28;20098;-64
2022/05/01 03:22:10;;;;;;;19.80;9.70;;;;;;;;;;10360534;28;20074;-64
2022/05/01 03:22:45;;;;;;;19.15;10.77;;;;;;;;;;10357685;28;20063;-64
2022/05/01 03:27:43;;;;;;;12.57;8.57;;;;;;;;;;10358797;28;20075;-64
2022/05/01 03:32:43;;;;;;;19.23;11.50;;;;;;;;;;10358649;28;20068;-64
2022/05/01 03:37:41;;;;;;;46.03;31.13;;;;;;;;;;10357919;28;20457;-64
2022/05/01 03:42:41;;;;;;;27.33;18.33;;;;;;;;;;10356929;28;20072;-65
2022/05/01 03:47:40;;;;;;;27.15;14.73;;;;;;;;;;10358407;28;20478;-64
2022/05/01 03:52:39;;;;;;;19.08;11.77;;;;;;;;;;10358309;28;20075;-64
2022/05/01 03:57:37;;;;;;;16.73;10.50;;;;;;;;;;10358696;28;20083;-64
2022/05/01 04:02:42;;;;;;;13.05;11.07;;;;;;;;;;10357603;28;20059;-64
2022/05/01 04:07:41;;;;;;;17.20;11.52;;;;;;;;;;10357758;28;20075;-64
2022/05/01 04:12:39;;;;;;;23.00;11.55;;;;;;;;;;10353487;28;20110;-64
2022/05/01 04:17:39;;;;;;;13.48;11.55;;;;;;;;;;10353757;28;20079;-64
2022/05/01 04:22:39;;;;;;;17.65;12.73;;;;;;;;;;10353813;28;20064;-64
2022/05/01 04:27:37;;;;;;;20.33;12.75;;;;;;;;;;10354823;28;20072;-62
2022/05/01 04:32:46;;;;;;;16.65;11.55;;;;;;;;;;10356647;28;20078;-62
2022/05/01 04:37:46;;;;;;;19.30;12.15;;;;;;;;;;10355124;28;20072;-63
2022/05/01 04:42:48;;;;;;;19.40;10.87;;;;;;;;;;10355778;28;20505;-64
2022/05/01 04:47:47;;;;;;;13.32;11.75;;;;;;;;;;10356737;28;20389;-64
2022/05/01 04:52:46;;;;;;;15.52;10.93;;;;;;;;;;10356893;28;20082;-64
2022/05/01 04:57:45;;;;;;;15.98;12.48;;;;;;;;;;10355089;28;20063;-64
2022/05/01 05:02:50;;;;;;;17.35;11.10;;;;;;;;;;10355343;28;20071;-64
2022/05/01 05:07:50;;;;;;;15.93;13.65;;;;;;;;;;10349323;28;20055;-63
2022/05/01 05:12:48;;;;;;;16.48;12.73;;;;;;;;;;10352580;28;20107;-64
2022/05/01 05:17:47;;;;;;;17.00;11.57;;;;;;;;;;10353015;28;20099;-64
2022/05/01 05:22:45;;;;;;;18.38;11.70;;;;;;;;;;10348291;28;20071;-64
2022/05/01 05:27:45;;;;;;;15.63;12.02;;;;;;;;;;10348714;28;20531;-64
2022/05/01 05:32:43;;;;;;;16.05;11.65;;;;;;;;;;10344943;28;20087;-65
2022/05/01 05:37:41;;;;;;;21.20;15.30;;;;;;;;;;10353336;28;20078;-65
2022/05/01 05:42:40;;;;;;;20.77;14.82;;;;;;;;;;10351194;28;20060;-64
2022/05/01 05:47:39;;;;;;;17.10;14.13;;;;;;;;;;10353298;28;20426;-63
2022/05/01 05:52:37;;;;;;;20.15;14.48;;;;;;;;;;10352606;28;20099;-64
2022/05/01 05:57:36;;;;;;;19.65;14.52;;;;;;;;;;10351945;28;20068;-64
2022/05/01 06:02:35;;;;;;;15.73;14.02;;;;;;;;;;10349151;28;20080;-64
2022/05/01 06:07:35;;;;;;;20.65;13.70;;;;;;;;;;10345927;28;20075;-63
2022/05/01 06:12:40;;;;;;;16.10;13.73;;;;;;;;;;10347429;28;20147;-64
2022/05/01 06:17:39;;;;;;;27.30;22.55;;;;;;;;;;10346246;28;20098;-64
2022/05/01 06:22:38;;;;;;;20.35;14.57;;;;;;;;;;10344541;28;20111;-65
2022/05/01 06:27:37;;;;;;;20.58;15.25;;;;;;;;;;10351850;28;20099;-65
2022/05/01 06:32:35;;;;;;;39.80;32.33;;;;;;;;;;10350211;28;20079;-66
2022/05/01 06:37:35;;;;;;;18.58;15.25;;;;;;;;;;10353139;28;20076;-65
2022/05/01 06:42:35;;;;;;;20.40;13.57;;;;;;;;;;10354879;28;20063;-65
2022/05/01 06:47:33;;;;;;;17.75;12.65;;;;;;;;;;10352648;28;20497;-64
2022/05/01 06:52:31;;;;;;;15.55;12.30;;;;;;;;;;10353822;28;20086;-64
2022/05/01 06:57:30;;;;;;;17.90;14.57;;;;;;;;;;10354324;28;20063;-64
2022/05/01 07:02:29;;;;;;;20.98;14.77;;;;;;;;;;10353092;28;20080;-65
2022/05/01 07:07:28;;;;;;;17.50;13.27;;;;;;;;;;10353966;28;20103;-65
2022/05/01 07:12:26;;;;;;;15.52;11.98;;;;;;;;;;10356038;28;20076;-65
2022/05/01 07:17:24;;;;;;;13.40;9.73;;;;;;;;;;10357270;28;20071;-65
2022/05/01 07:22:24;;;;;;;19.17;11.82;;;;;;;;;;10357858;28;20074;-64
2022/05/01 07:27:22;;;;;;;33.83;22.83;;;;;;;;;;10357246;28;20443;-64
2022/05/01 07:32:21;;;;;;;9.82;6.82;;;;;;;;;;10357489;28;20080;-64
2022/05/01 07:37:20;;;;;;;9.02;7.57;;;;;;;;;;10358966;28;20095;-64
2022/05/01 07:42:20;;;;;;;8.07;5.68;;;;;;;;;;10357318;28;20071;-65
2022/05/01 07:47:18;;;;;;;8.48;6.90;;;;;;;;;;10357981;28;20075;-64
2022/05/01 07:52:17;;;;;;;16.67;6.93;;;;;;;;;;10356803;28;20040;-65
2022/05/01 07:57:16;;;;;;;8.25;6.05;;;;;;;;;;10353572;28;20119;-64
2022/05/01 08:02:15;;;;;;;10.98;6.68;;;;;;;;;;10346900;28;20493;-64
2022/05/01 08:07:14;;;;;;;7.20;5.18;;;;;;;;;;10346488;28;20289;-65
2022/05/01 08:12:13;;;;;;;9.75;7.47;;;;;;;;;;10344632;28;20087;-64
2022/05/01 08:17:17;;;;;;;11.10;6.00;;;;;;;;;;10346367;28;20462;-64
2022/05/01 08:22:16;;;;;;;10.30;8.40;;;;;;;;;;10346493;28;20052;-64
2022/05/01 08:27:14;;;;;;;8.57;6.18;;;;;;;;;;10350385;28;20052;-64
2022/05/01 08:32:12;;;;;;;8.82;6.70;;;;;;;;;;10343894;28;20203;-64
2022/05/01 08:37:12;;;;;;;8.68;7.65;;;;;;;;;;10350885;28;20071;-65
2022/05/01 08:42:10;;;;;;;5.28;4.78;;;;;;;;;;10351994;28;20089;-65
2022/05/01 08:47:18;;;;;;;4.43;4.05;;;;;;;;;;10349908;28;20426;-64
2022/05/01 08:52:20;;;;;;;18.60;15.02;;;;;;;;;;10342684;28;20345;-64
2022/05/01 08:57:20;;;;;;;12.20;10.30;;;;;;;;;;10350651;28;20564;-64
2022/05/01 09:02:18;;;;;;;23.13;14.35;;;;;;;;;;10347571;28;20059;-65
2022/05/01 09:07:18;;;;;;;9.52;5.43;;;;;;;;;;10352088;28;20497;-65
2022/05/01 09:17:33;;;;;;;32.47;23.92;;;;;;;;;;10353049;28;20075;-65
2022/05/01 09:22:47;;;;;;;5.40;3.97;;;;;;;;;;10346852;28;20068;-65
2022/05/01 09:27:45;;;;;;;15.10;13.23;;;;;;;;;;10352369;28;20073;-65
2022/05/01 09:32:44;;;;;;;18.08;15.07;;;;;;;;;;10347034;28;20071;-66
2022/05/01 09:37:44;;;;;;;9.07;6.80;;;;;;;;;;10346739;28;20068;-65
2022/05/01 09:42:42;;;;;;;8.80;6.07;;;;;;;;;;10348492;28;20074;-65
2022/05/01 09:47:42;;;;;;;12.45;10.43;;;;;;;;;;10344675;28;20086;-65
2022/05/01 09:52:55;;;;;;;6.38;5.78;;;;;;;;;;10351300;28;20443;-65
2022/05/01 09:58:07;;;;;;;6.60;5.90;;;;;;;;;;10347852;28;20118;-65
2022/05/01 10:03:21;;;;;;;6.28;4.30;;;;;;;;;;10343945;28;20087;-65
2022/05/01 10:08:21;;;;;;;16.95;13.30;;;;;;;;;;10344062;28;20059;-65
2022/05/01 10:13:19;;;;;;;5.25;4.13;;;;;;;;;;10352302;28;20077;-65
2022/05/01 10:18:34;;;;;;;6.43;3.75;;;;;;;;;;10360323;28;20055;-66
2022/05/01 10:23:34;;;;;;;8.80;6.63;;;;;;;;;;10361082;28;20052;-65
2022/05/01 10:28:46;;;;;;;7.30;6.07;;;;;;;;;;10359421;28;20040;-66
2022/05/01 10:33:53;;;;;;;4.70;3.80;;;;;;;;;;10359630;28;20535;-65
2022/05/01 10:39:15;;;;;;;9.20;4.40;;;;;;;;;;10355673;28;20086;-65
2022/05/01 10:44:26;;;;;;;4.72;4.10;;;;;;;;;;10357901;28;20486;-65
2022/05/01 10:49:34;;;;;;;3.72;2.80;;;;;;;;;;10358888;28;20071;-65
2022/05/01 10:54:37;;;;;;;4.07;3.42;;;;;;;;;;10359282;28;20072;-65
2022/05/01 10:59:38;;;;;;;3.13;2.40;;;;;;;;;;10358057;28;20079;-66
2022/05/01 11:04:40;;;;;;;8.18;3.47;;;;;;;;;;10359616;28;20051;-65
2022/05/01 11:09:41;;;;;;;4.53;3.05;;;;;;;;;;10358222;28;20076;-65
2022/05/01 11:14:40;;;;;;;5.53;3.72;;;;;;;;;;10355174;28;20082;-65
2022/05/01 11:19:44;;;;;;;6.30;3.67;;;;;;;;;;10357015;28;20071;-66
2022/05/01 11:24:45;;;;;;;3.28;2.33;;;;;;;;;;10358087;28;20070;-65
2022/05/01 11:30:02;;;;;;;4.22;3.17;;;;;;;;;;10358844;28;20044;-66
2022/05/01 11:35:00;;;;;;;5.28;4.75;;;;;;;;;;10351538;28;20080;-66
2022/05/01 11:40:13;;;;;;;5.32;2.63;;;;;;;;;;10357717;28;20052;-65
2022/05/01 11:45:13;;;;;;;7.82;4.75;;;;;;;;;;10352735;28;20114;-65
2022/05/01 11:50:19;;;;;;;4.43;3.70;;;;;;;;;;10357034;28;20446;-66
2022/05/01 11:55:21;;;;;;;3.42;3.13;;;;;;;;;;10350687;28;20095;-65
2022/05/01 12:05:43;;;;;;;4.65;4.18;;;;;;;;;;10356643;28;20068;-66
2022/05/01 12:10:42;;;;;;;2.90;2.60;;;;;;;;;;10355369;28;20079;-65
2022/05/01 12:15:43;;;;;;;4.03;2.30;;;;;;;;;;10354221;28;20284;-66
2022/05/01 12:20:42;;;;;;;4.93;2.80;;;;;;;;;;10355820;28;20126;-66
2022/05/01 12:25:41;;;;;;;3.00;2.47;;;;;;;;;;10356027;28;20048;-66
2022/05/01 12:30:39;;;;;;;2.58;2.35;;;;;;;;;;10354512;28;20040;-66
2022/05/01 12:35:55;;;;;;;2.72;2.40;;;;;;;;;;10355359;28;20090;-66
2022/05/01 12:46:21;;;;;;;6.90;5.47;;;;;;;;;;10350956;28;20521;-66
2022/05/01 12:51:21;;;;;;;5.43;3.25;;;;;;;;;;10352255;28;20497;-65
2022/05/01 12:56:21;;;;;;;6.00;3.30;;;;;;;;;;10352262;28;20493;-66
2022/05/01 13:01:24;;;;;;;5.72;2.58;;;;;;;;;;10354049;28;20080;-65
2022/05/01 13:06:24;;;;;;;3.45;3.15;;;;;;;;;;10352413;28;20044;-65
2022/05/01 13:11:24;;;;;;;4.90;3.15;;;;;;;;;;10352223;28;20075;-65
2022/05/01 13:16:25;;;;;;;2.40;2.03;;;;;;;;;;10342450;28;20051;-65
2022/05/01 13:21:26;;;;;;;3.80;2.08;;;;;;;;;;10350865;28;20084;-65
2022/05/01 13:26:25;;;;;;;2.75;2.20;;;;;;;;;;10343065;28;20450;-65
2022/05/01 13:31:41;;;;;;;3.92;2.58;;;;;;;;;;10343353;28;20052;-65
2022/05/01 13:36:41;;;;;;;4.00;2.60;;;;;;;;;;10350532;28;20072;-65
2022/05/01 13:46:56;;;;;;;3.35;2.60;;;;;;;;;;10357211;28;20072;-65
2022/05/01 13:51:56;;;;;;;3.17;2.67;;;;;;;;;;10360657;28;20084;-65
2022/05/01 13:56:54;;;;;;;3.05;2.35;;;;;;;;;;10356753;28;20094;-65
2022/05/01 14:01:56;;;;;;;4.90;2.30;;;;;;;;;;10356283;28;20079;-66
2022/05/01 14:06:56;;;;;;;2.30;2.10;;;;;;;;;;10356340;28;20060;-64
2022/05/01 14:11:55;;;;;;;7.07;2.70;;;;;;;;;;10353895;28;20083;-65
2022/05/01 14:16:53;;;;;;;2.72;2.53;;;;;;;;;;10355830;28;20076;-65
2022/05/01 14:21:52;;;;;;;3.75;2.40;;;;;;;;;;10355389;28;20098;-65
2022/05/01 14:27:11;;;;;;;2.83;2.28;;;;;;;;;;10355537;28;20044;-65
2022/05/01 14:32:13;;;;;;;3.38;2.10;;;;;;;;;;10351883;28;20512;-65
2022/05/01 14:37:17;;;;;;;3.70;2.60;;;;;;;;;;10354279;28;20075;-65
2022/05/01 14:42:16;;;;;;;;;;;;;;;;;;10347502;28;20417;-65
2022/05/01 14:47:26;;;;;;;3.58;1.88;;;;;;;;;;10346398;28;20224;-65
2022/05/01 14:52:26;;;;;;;3.33;2.00;;;;;;;;;;10349732;28;20469;-65
2022/05/01 14:57:26;;;;;;;4.40;2.38;;;;;;;;;;10352174;28;20072;-65
2022/05/01 15:07:44;;;;;;;3.63;2.30;;;;;;;;;;10352239;28;20039;-64
2022/05/01 15:12:43;;;;;;;4.40;2.17;;;;;;;;;;10350086;28;20457;-64
2022/05/01 15:17:45;;;;;;;2.83;2.30;;;;;;;;;;10353476;28;20087;-65
2022/05/01 15:22:46;;;;;;;1.95;1.77;;;;;;;;;;10353946;28;20390;-65
2022/05/01 15:27:47;;;;;;;2.80;1.92;;;;;;;;;;10354362;28;20036;-65
2022/05/01 15:38:11;;;;;;;4.07;2.60;;;;;;;;;;10348497;28;20083;-65
2022/05/01 15:43:09;;;;;;;7.40;2.13;;;;;;;;;;10355886;28;20072;-64
2022/05/01 15:48:10;;;;;;;5.25;2.70;;;;;;;;;;10351236;28;20048;-64
2022/05/01 15:58:26;;;;;;;5.70;1.98;;;;;;;;;;10350236;28;20052;-65
2022/05/01 16:03:25;;;;;;;5.07;2.53;;;;;;;;;;10354457;28;20074;-64
2022/05/01 16:08:26;;;;;;;5.43;3.25;;;;;;;;;;10350878;28;20055;-64
2022/05/01 16:13:30;;;;;;;6.35;3.20;;;;;;;;;;10350572;28;20139;-64
2022/05/01 16:18:35;;;;;;;5.38;3.00;;;;;;;;;;10353956;28;20076;-64
2022/05/01 16:23:41;;;;;;;4.25;2.92;;;;;;;;;;10353288;28;20069;-65
2022/05/01 16:28:43;;;;;;;3.38;2.63;;;;;;;;;;10355409;28;20071;-64
2022/05/01 16:33:57;;;;;;;3.75;2.15;;;;;;;;;;10352903;28;20103;-64
2022/05/01 16:38:55;;;;;;;5.93;2.90;;;;;;;;;;10350852;28;20079;-65
2022/05/01 16:43:54;;;;;;;4.55;2.42;;;;;;;;;;10353131;28;20044;-65
2022/05/01 16:48:54;;;;;;;5.97;2.75;;;;;;;;;;10356645;28;20072;-64
2022/05/01 16:53:53;;;;;;;7.90;4.10;;;;;;;;;;10356733;28;20083;-65
2022/05/01 16:58:53;;;;;;;4.63;2.65;;;;;;;;;;10356407;28;20090;-65
2022/05/01 17:03:54;;;;;;;8.48;3.88;;;;;;;;;;10356753;28;20044;-64
2022/05/01 17:09:03;;;;;;;3.90;2.47;;;;;;;;;;10355972;28;20052;-65
2022/05/01 17:14:19;;;;;;;4.05;2.75;;;;;;;;;;10355244;28;20054;-64
2022/05/01 17:19:22;;;;;;;9.02;3.20;;;;;;;;;;10354712;28;20163;-65
2022/05/01 17:24:29;;;;;;;5.72;4.72;;;;;;;;;;10355262;28;20084;-65
2022/05/01 17:29:29;;;;;;;7.18;3.95;;;;;;;;;;10354148;28;20075;-64
2022/05/01 17:34:28;;;;;;;3.80;2.95;;;;;;;;;;10354052;28;20493;-65
2022/05/01 17:39:31;;;;;;;3.38;2.33;;;;;;;;;;10355420;28;20063;-65
2022/05/01 17:44:30;;;;;;;5.03;2.63;;;;;;;;;;10353764;28;20084;-64
2022/05/01 17:49:32;;;;;;;5.28;2.97;;;;;;;;;;10353579;28;20075;-65
2022/05/01 17:54:31;;;;;;;3.92;2.97;;;;;;;;;;10355438;28;20083;-64
2022/05/01 17:59:30;;;;;;;3.78;2.25;;;;;;;;;;10353461;28;20079;-64
2022/05/01 18:09:58;;;;;;;5.55;2.67;;;;;;;;;;10354113;28;20121;-64
2022/05/01 18:14:56;;;;;;;;;;;;;;;;;;10355492;28;20418;-64
2022/05/01 18:20:00;;;;;;;6.35;3.00;;;;;;;;;;10354538;28;19967;-64
2022/05/01 18:25:02;;;;;;;4.93;3.03;;;;;;;;;;10355651;28;20040;-64
2022/05/01 18:30:13;;;;;;;3.85;2.65;;;;;;;;;;10351693;28;20063;-65
2022/05/01 18:35:14;;;;;;;3.30;3.00;;;;;;;;;;10361046;28;20095;-65
2022/05/01 18:40:15;;;;;;;4.95;3.53;;;;;;;;;;10362423;28;20106;-64
2022/05/01 18:45:15;;;;;;;6.00;4.65;;;;;;;;;;10361025;28;20078;-64
2022/05/01 18:50:14;;;;;;;4.40;3.65;;;;;;;;;;10358710;28;20457;-65
2022/05/01 18:55:15;;;;;;;4.82;3.60;;;;;;;;;;10360358;28;20058;-64
2022/05/01 19:00:14;;;;;;;7.00;4.53;;;;;;;;;;10359834;28;20520;-64
2022/05/01 19:05:13;;;;;;;11.40;3.97;;;;;;;;;;10359914;28;20110;-64
2022/05/01 19:10:26;;;;;;;3.70;3.17;;;;;;;;;;10359815;28;20056;-65
2022/05/01 19:15:27;;;;;;;5.30;3.78;;;;;;;;;;10359672;28;20532;-64
2022/05/01 19:20:28;;;;;;;8.00;3.95;;;;;;;;;;10359059;28;20068;-64
2022/05/01 19:30:54;;;;;;;4.35;3.75;;;;;;;;;;10359141;28;20114;-65
2022/05/01 19:35:55;;;;;;;7.07;4.03;;;;;;;;;;10359013;28;20163;-65
2022/05/01 19:40:58;;;;;;;7.47;3.80;;;;;;;;;;10358539;28;20072;-64
2022/05/01 19:46:01;;;;;;;29.42;5.97;;;;;;;;;;10358077;28;20098;-64
2022/05/01 19:56:23;;;;;;;8.80;5.60;;;;;;;;;;10358463;28;20044;-64
2022/05/01 20:01:22;;;;;;;4.25;3.85;;;;;;;;;;10359191;28;20084;-64
2022/05/01 20:06:21;;;;;;;3.00;2.70;;;;;;;;;;10357317;28;20106;-64
2022/05/01 20:11:20;;;;;;;5.70;3.10;;;;;;;;;;10355771;28;20076;-64
2022/05/01 20:16:26;;;;;;;11.27;5.53;;;;;;;;;;10357941;28;20067;-64
2022/05/01 20:21:28;;;;;;;5.18;4.30;;;;;;;;;;10350122;28;20068;-65
2022/05/01 20:26:28;;;;;;;4.30;3.50;;;;;;;;;;10356554;28;20135;-64
2022/05/01 20:31:32;;;;;;;8.32;2.95;;;;;;;;;;10348177;28;20068;-64
2022/05/01 20:36:46;;;;;;;5.30;3.15;;;;;;;;;;10348315;28;20474;-64
2022/05/01 20:41:48;;;;;;;4.88;2.90;;;;;;;;;;10354178;28;20070;-64
2022/05/01 20:46:51;;;;;;;5.45;3.38;;;;;;;;;;10352197;28;20283;-64
2022/05/01 20:51:52;;;;;;;4.15;2.92;;;;;;;;;;10352125;28;20059;-64
2022/05/01 20:56:51;;;;;;;3.47;2.78;;;;;;;;;;10350753;28;20079;-64
2022/05/01 21:01:50;;;;;;;5.55;2.70;;;;;;;;;;10353765;28;20079;-64
2022/05/01 21:06:51;;;;;;;6.82;2.50;;;;;;;;;;10355973;28;20090;-64
2022/05/01 21:11:49;;;;;;;4.18;2.55;;;;;;;;;;10354677;28;20543;-65
2022/05/01 21:16:47;;;;;;;5.40;2.85;;;;;;;;;;10355375;28;20079;-64
2022/05/01 21:21:48;;;;;;;4.57;2.63;;;;;;;;;;10355376;28;20075;-64
2022/05/01 21:26:47;;;;;;;4.70;2.85;;;;;;;;;;10355164;28;20129;-64
2022/05/01 21:37:02;;;;;;;4.75;2.67;;;;;;;;;;10355207;28;20079;-65
2022/05/01 21:42:00;;;;;;;7.40;3.15;;;;;;;;;;10354619;28;20075;-64
2022/05/01 21:46:59;;;;;;;7.13;3.00;;;;;;;;;;10355319;28;20092;-64
2022/05/01 21:51:57;;;;;;;4.15;2.70;;;;;;;;;;10355004;28;20044;-65
2022/05/01 21:56:57;;;;;;;4.28;2.85;;;;;;;;;;10354739;28;20060;-64
2022/05/01 22:01:56;;;;;;;5.75;2.70;;;;;;;;;;10354704;28;20083;-64
2022/05/01 22:06:57;;;;;;;4.50;2.92;;;;;;;;;;10355444;28;20521;-65
2022/05/01 22:11:57;;;;;;;3.25;2.47;;;;;;;;;;10362735;28;20489;-64
2022/05/01 22:22:07;;;;;;;6.85;3.05;;;;;;;;;;10362810;28;20079;-64
2022/05/01 22:27:12;;;;;;;2.60;2.40;;;;;;;;;;10361828;28;20064;-64
2022/05/01 22:32:11;;;;;;;;;;;;;;;;;;10362050;28;20083;-65
2022/05/01 22:42:27;;;;;;;9.98;3.05;;;;;;;;;;10355790;28;20455;-65
2022/05/01 22:47:25;;;;;;;3.80;2.97;;;;;;;;;;10360642;28;20078;-64
2022/05/01 22:52:24;;;;;;;5.75;2.88;;;;;;;;;;10360589;28;20068;-64
2022/05/01 22:57:22;;;;;;;5.47;2.97;;;;;;;;;;10360232;28;20068;-64
2022/05/01 23:02:22;;;;;;;2.60;2.25;;;;;;;;;;10359812;28;20086;-64
2022/05/01 23:07:20;;;;;;;3.20;2.33;;;;;;;;;;10359637;28;20079;-64
2022/05/01 23:12:18;;;;;;;5.13;3.08;;;;;;;;;;10359714;28;20076;-64
2022/05/01 23:17:16;;;;;;;6.60;3.08;;;;;;;;;;10358191;28;20052;-64
2022/05/01 23:22:16;;;;;;;5.75;2.95;;;;;;;;;;10349567;28;20215;-64
2022/05/01 23:27:14;;;;;;;4.32;3.05;;;;;;;;;;10356889;28;20082;-64
2022/05/01 23:32:13;;;;;;;3.55;2.92;;;;;;;;;;10350514;28;20208;-64
2022/05/01 23:37:11;;;;;;;5.57;2.90;;;;;;;;;;10356668;28;20059;-64
2022/05/01 23:42:11;;;;;;;6.50;3.22;;;;;;;;;;10357413;28;20521;-64
2022/05/01 23:47:09;;;;;;;4.57;2.80;;;;;;;;;;10357002;28;20080;-64
2022/05/01 23:52:07;;;;;;;3.70;3.03;;;;;;;;;;10355480;28;20075;-64
2022/05/01 23:57:06;;;;;;;3.03;2.70;;;;;;;;;;10355319;28;20501;-64
